createdAt,value
2023-03-10T00:01:53.000Z,22.50
2023-03-10T00:04:19.782Z,21.95
2023-03-10T00:06:46.705Z,22.67
2023-03-10T00:09:13.874Z,22.98
2023-03-10T00:11:40.702Z,22.92
2023-03-10T00:14:07.503Z,20.95
2023-03-10T00:16:34.294Z,21.15
2023-03-10T00:19:01.083Z,22.75
2023-03-10T00:21:30.785Z,22.52
2023-03-10T00:23:58.071Z,24.05
2023-03-10T00:26:27.976Z,23.95
2023-03-10T00:28:55.592Z,25.88
2023-03-10T00:31:24.918Z,26.48
2023-03-10T00:33:54.898Z,26.45
2023-03-10T00:36:27.462Z,23.67
2023-03-10T00:38:55.982Z,22.98
2023-03-10T00:41:26.045Z,21.70
2023-03-10T00:43:53.078Z,22.90
2023-03-10T00:46:20.191Z,22.48
2023-03-10T00:48:46.998Z,21.88
2023-03-10T00:51:13.843Z,23.08
2023-03-10T00:53:41.703Z,22.58
2023-03-10T00:56:10.931Z,21.42
2023-03-10T00:58:38.145Z,23.30
2023-03-10T01:01:10.712Z,23.50
2023-03-10T01:03:37.453Z,26.42
2023-03-10T01:06:04.387Z,25.50
2023-03-10T01:08:31.178Z,24.58
2023-03-10T01:10:58.075Z,26.85
2023-03-10T01:13:24.862Z,30.10
2023-03-10T01:15:51.668Z,27.13
2023-03-10T01:18:20.308Z,29.48
2023-03-10T01:20:48.185Z,30.88
2023-03-10T01:23:23.703Z,28.08
2023-03-10T01:25:51.201Z,27.58
2023-03-10T01:28:18.499Z,26.40
2023-03-10T01:30:45.469Z,26.20
2023-03-10T01:33:13.782Z,24.85
2023-03-10T01:35:41.205Z,26.20
2023-03-10T01:38:08.704Z,22.15
2023-03-10T01:40:36.735Z,24.10
2023-03-10T01:43:30.131Z,22.95
2023-03-10T01:46:38.598Z,24.58
2023-03-10T01:49:23.838Z,23.55
2023-03-10T01:52:16.115Z,24.27
2023-03-10T01:54:46.535Z,23.65
2023-03-10T01:57:16.319Z,23.42
2023-03-10T01:59:43.658Z,25.23
2023-03-10T02:02:11.045Z,24.60
2023-03-10T02:04:43.963Z,21.25
2023-03-10T02:07:11.875Z,23.17
2023-03-10T02:09:43.434Z,25.25
2023-03-10T02:12:12.140Z,23.38
2023-03-10T02:14:39.913Z,24.00
2023-03-10T02:17:11.176Z,22.70
2023-03-10T02:19:53.745Z,23.25
2023-03-10T02:22:20.756Z,22.20
2023-03-10T02:25:11.131Z,21.77
2023-03-10T02:27:39.409Z,22.67
2023-03-10T02:30:08.635Z,20.42
2023-03-10T02:32:40.838Z,23.27
2023-03-10T02:35:08.236Z,20.58
2023-03-10T02:37:36.196Z,20.33
2023-03-10T02:40:05.013Z,20.10
2023-03-10T02:42:35.773Z,20.40
2023-03-10T02:45:04.573Z,19.70
2023-03-10T02:47:31.370Z,20.55
2023-03-10T02:49:58.237Z,21.85
2023-03-10T02:52:46.487Z,20.63
2023-03-10T02:55:17.878Z,20.25
2023-03-10T02:57:44.946Z,19.90
2023-03-10T03:00:12.911Z,20.60
2023-03-10T03:02:39.866Z,20.13
2023-03-10T03:05:07.406Z,21.02
2023-03-10T03:07:34.354Z,21.08
2023-03-10T03:10:01.205Z,19.95
2023-03-10T03:12:28.109Z,20.42
2023-03-10T03:14:54.873Z,20.30
2023-03-10T03:17:21.693Z,18.42
2023-03-10T03:19:48.432Z,20.33
2023-03-10T03:22:15.193Z,19.85
2023-03-10T03:24:41.905Z,21.65
2023-03-10T03:27:08.645Z,19.85
2023-03-10T03:29:35.479Z,18.48
2023-03-10T03:32:07.352Z,18.08
2023-03-10T03:34:34.312Z,20.35
2023-03-10T03:37:01.117Z,19.63
2023-03-10T03:39:27.963Z,20.13
2023-03-10T03:41:57.251Z,18.33
2023-03-10T03:44:24.108Z,18.70
2023-03-10T03:46:50.856Z,17.65
2023-03-10T03:49:17.626Z,19.83
2023-03-10T03:51:44.385Z,19.30
2023-03-10T03:54:11.151Z,18.67
2023-03-10T03:56:37.958Z,18.77
2023-03-10T03:59:05.155Z,18.63
2023-03-10T04:01:31.901Z,20.52
2023-03-10T04:03:58.735Z,20.20
2023-03-10T04:06:25.591Z,19.13
2023-03-10T04:08:52.375Z,19.65
2023-03-10T04:11:19.175Z,20.35
2023-03-10T04:13:45.991Z,18.20
2023-03-10T04:16:12.991Z,20.58
2023-03-10T04:18:39.727Z,19.35
2023-03-10T04:21:06.527Z,20.38
2023-03-10T04:23:33.316Z,20.50
2023-03-10T04:26:00.117Z,20.58
2023-03-10T04:28:26.851Z,19.92
2023-03-10T04:30:53.659Z,19.80
2023-03-10T04:33:20.551Z,20.15
2023-03-10T04:35:51.398Z,21.23
2023-03-10T04:38:18.469Z,20.00
2023-03-10T04:40:45.525Z,20.45
2023-03-10T04:43:12.315Z,21.77
2023-03-10T04:45:39.045Z,19.55
2023-03-10T04:48:05.937Z,20.50
2023-03-10T04:50:32.729Z,19.83
2023-03-10T04:52:59.489Z,20.08
2023-03-10T04:55:26.272Z,21.08
2023-03-10T04:57:53.001Z,22.70
2023-03-10T05:00:20.068Z,20.95
2023-03-10T05:02:46.858Z,20.88
2023-03-10T05:05:13.693Z,22.00
2023-03-10T05:07:40.502Z,22.52
2023-03-10T05:10:08.260Z,24.20
2023-03-10T05:12:35.023Z,21.75
2023-03-10T05:15:01.801Z,23.50
2023-03-10T05:17:29.425Z,23.48
2023-03-10T05:19:57.834Z,23.50
2023-03-10T05:22:24.633Z,21.52
2023-03-10T05:24:51.529Z,24.38
2023-03-10T05:27:19.819Z,25.10
2023-03-10T05:29:46.615Z,23.88
2023-03-10T05:32:13.492Z,23.45
2023-03-10T05:34:40.210Z,26.08
2023-03-10T05:37:06.951Z,26.42
2023-03-10T05:39:33.923Z,23.50
2023-03-10T05:42:00.818Z,25.10
2023-03-10T05:44:27.573Z,26.00
2023-03-10T05:46:54.556Z,25.70
2023-03-10T05:49:21.362Z,26.98
2023-03-10T05:51:48.262Z,27.73
2023-03-10T05:54:15.922Z,27.45
2023-03-10T05:56:42.693Z,27.30
2023-03-10T05:59:09.467Z,26.63
2023-03-10T06:01:37.168Z,26.15
2023-03-10T06:04:04.182Z,26.52
2023-03-10T06:06:31.136Z,27.70
2023-03-10T06:08:58.065Z,27.35
2023-03-10T06:11:24.836Z,28.42
2023-03-10T06:13:51.682Z,25.42
2023-03-10T06:16:18.930Z,27.48
2023-03-10T06:18:45.934Z,28.45
2023-03-10T06:21:15.231Z,26.50
2023-03-10T06:23:42.116Z,26.63
2023-03-10T06:26:12.893Z,25.30
2023-03-10T06:28:42.179Z,26.20
2023-03-10T06:31:17.035Z,26.75
2023-03-10T06:33:44.386Z,23.15
2023-03-10T06:36:12.403Z,25.63
2023-03-10T06:38:45.006Z,26.75
2023-03-10T06:41:12.385Z,26.48
2023-03-10T06:43:39.935Z,25.23
2023-03-10T06:46:09.322Z,25.02
2023-03-10T06:48:38.565Z,23.23
2023-03-10T06:51:11.120Z,24.73
2023-03-10T06:53:38.026Z,23.75
2023-03-10T06:56:11.391Z,24.42
2023-03-10T06:58:39.735Z,25.48
2023-03-10T07:01:07.734Z,24.40
2023-03-10T07:03:35.793Z,25.63
2023-03-10T07:06:02.568Z,24.08
2023-03-10T07:08:30.417Z,23.52
2023-03-10T07:10:57.724Z,23.30
2023-03-10T07:13:24.636Z,23.77
2023-03-10T07:15:51.401Z,25.33
2023-03-10T07:18:18.174Z,22.83
2023-03-10T07:20:45.779Z,23.15
2023-03-10T07:23:13.794Z,23.13
2023-03-10T07:25:41.297Z,23.85
2023-03-10T07:28:08.697Z,26.17
2023-03-10T07:30:36.529Z,21.73
2023-03-10T07:33:03.668Z,20.60
2023-03-10T07:35:30.423Z,22.52
2023-03-10T07:37:57.183Z,21.15
2023-03-10T07:40:25.045Z,22.52
2023-03-10T07:42:54.475Z,22.45
2023-03-10T07:45:22.528Z,22.85
2023-03-10T07:47:51.333Z,20.27
2023-03-10T07:50:18.830Z,21.83
2023-03-10T07:52:45.935Z,22.95
2023-03-10T07:55:13.145Z,22.42
2023-03-10T07:57:39.944Z,22.13
2023-03-10T08:00:08.220Z,19.83
2023-03-10T08:02:34.946Z,20.75
2023-03-10T08:05:01.982Z,20.88
2023-03-10T08:07:28.859Z,20.08
2023-03-10T08:09:55.662Z,21.63
2023-03-10T08:12:22.423Z,20.80
2023-03-10T08:14:50.519Z,22.08
2023-03-10T08:17:17.515Z,21.55
2023-03-10T08:19:44.490Z,20.83
2023-03-10T08:22:11.367Z,20.30
2023-03-10T08:24:38.250Z,20.60
2023-03-10T08:27:06.034Z,22.35
2023-03-10T08:29:32.824Z,20.85
2023-03-10T08:31:59.772Z,21.20
2023-03-10T08:34:33.289Z,22.73
2023-03-10T08:37:00.974Z,20.85
2023-03-10T08:39:28.953Z,22.40
2023-03-10T08:41:55.881Z,21.05
2023-03-10T08:44:22.945Z,20.95
2023-03-10T08:46:50.920Z,19.90
2023-03-10T08:49:20.511Z,21.73
2023-03-10T08:51:47.578Z,22.48
2023-03-10T08:54:17.101Z,21.42
2023-03-10T08:56:43.915Z,22.58
2023-03-10T08:59:10.718Z,19.20
2023-03-10T09:01:38.424Z,20.50
2023-03-10T09:04:07.542Z,19.38
2023-03-10T09:06:35.198Z,20.15
2023-03-10T09:09:02.244Z,20.17
2023-03-10T09:11:32.465Z,19.23
2023-03-10T09:14:01.181Z,20.58
2023-03-10T09:16:28.931Z,18.63
2023-03-10T09:18:59.643Z,18.55
2023-03-10T09:21:31.290Z,20.38
2023-03-10T09:24:00.049Z,21.88
2023-03-10T09:26:26.929Z,18.27
2023-03-10T09:28:56.863Z,20.25
2023-03-10T09:31:28.311Z,19.33
2023-03-10T09:33:55.169Z,18.45
2023-03-10T09:36:22.869Z,20.27
2023-03-10T09:38:49.803Z,19.58
2023-03-10T09:45:32.594Z,19.20
2023-03-10T09:48:11.359Z,19.88
2023-03-10T09:50:43.929Z,18.75
2023-03-10T09:53:37.444Z,18.13
2023-03-10T09:56:12.149Z,17.27
2023-03-10T09:58:43.709Z,20.65
2023-03-10T10:01:17.538Z,20.45
2023-03-10T10:03:53.055Z,17.58
2023-03-10T10:06:28.799Z,19.85
2023-03-10T10:09:05.753Z,19.85
2023-03-10T10:11:34.494Z,18.20
2023-03-10T10:14:29.523Z,19.85
2023-03-10T10:17:07.664Z,18.77
2023-03-10T10:19:37.170Z,19.10
2023-03-10T10:22:15.401Z,20.83
2023-03-10T10:24:55.177Z,19.35
2023-03-10T10:27:23.782Z,19.55
2023-03-10T10:29:51.992Z,20.50
2023-03-10T10:32:18.790Z,20.50
2023-03-10T10:34:47.003Z,18.63
2023-03-10T10:37:40.902Z,19.67
2023-03-10T10:40:27.097Z,19.95
2023-03-10T10:42:56.131Z,20.33
2023-03-10T10:45:39.789Z,21.05
2023-03-10T10:48:06.959Z,19.50
2023-03-10T10:50:35.692Z,22.02
2023-03-10T10:53:24.272Z,20.80
2023-03-10T10:56:17.903Z,19.30
2023-03-10T10:59:00.032Z,21.30
2023-03-10T11:01:27.120Z,19.75
2023-03-10T11:04:12.876Z,20.65
2023-03-10T11:06:39.793Z,19.95
2023-03-10T11:09:10.929Z,20.75
2023-03-10T11:11:48.164Z,20.30
2023-03-10T11:14:40.899Z,20.63
2023-03-10T11:17:20.044Z,19.15
2023-03-10T11:20:06.965Z,20.52
2023-03-10T11:23:23.475Z,20.30
2023-03-10T11:26:19.286Z,21.77
2023-03-10T11:32:07.186Z,20.30
2023-03-10T11:34:39.189Z,19.30
2023-03-10T11:37:26.262Z,20.63
2023-03-10T11:40:07.592Z,20.50
2023-03-10T11:43:04.903Z,20.23
2023-03-10T11:45:55.560Z,20.33
2023-03-10T11:48:25.190Z,18.52
2023-03-10T11:51:03.824Z,24.98
2023-03-10T11:53:50.334Z,20.55
2023-03-10T11:56:20.804Z,19.30
2023-03-10T11:59:08.624Z,19.58
2023-03-10T12:01:54.079Z,19.85
2023-03-10T12:07:03.757Z,20.30
2023-03-10T12:12:38.790Z,20.30
2023-03-10T12:17:33.630Z,18.85
2023-03-10T12:20:16.082Z,19.02
2023-03-10T12:22:43.308Z,18.70
2023-03-10T12:25:28.152Z,20.30
2023-03-10T12:28:13.724Z,19.23
2023-03-10T12:30:43.581Z,21.58
2023-03-10T12:33:39.522Z,18.27
2023-03-10T12:38:46.140Z,20.83
2023-03-10T12:44:48.814Z,18.98
2023-03-10T12:47:26.361Z,19.73
2023-03-10T12:50:03.798Z,20.48
2023-03-10T12:53:16.921Z,19.13
2023-03-10T12:59:40.722Z,19.75
2023-03-10T13:02:24.364Z,20.17
2023-03-10T13:04:55.632Z,21.25
2023-03-10T13:07:22.407Z,19.45
2023-03-10T13:09:50.915Z,20.67
2023-03-10T13:12:25.159Z,20.73
2023-03-10T13:14:56.669Z,19.25
2023-03-10T13:17:32.923Z,21.00
2023-03-10T13:20:01.121Z,21.17
2023-03-10T13:22:28.171Z,18.92
2023-03-10T13:25:03.013Z,20.20
2023-03-10T13:27:32.428Z,20.95
2023-03-10T13:30:23.093Z,19.80
2023-03-10T13:32:57.512Z,22.17
2023-03-10T13:35:35.946Z,20.10
2023-03-10T13:38:13.366Z,21.45
2023-03-10T13:40:43.980Z,17.98
2023-03-10T13:43:39.174Z,19.63
2023-03-10T13:46:15.154Z,18.95
2023-03-10T13:48:43.144Z,19.25
2023-03-10T13:51:31.965Z,18.90
2023-03-10T13:54:20.578Z,19.38
2023-03-10T13:56:49.963Z,18.38
2023-03-10T13:59:21.530Z,18.25
2023-03-10T14:01:53.592Z,19.98
2023-03-10T14:04:45.543Z,19.70
2023-03-10T14:07:18.519Z,24.15
2023-03-10T14:10:08.673Z,20.50
2023-03-10T14:12:35.598Z,19.77
2023-03-10T14:15:14.740Z,19.23
2023-03-10T14:17:43.526Z,20.35
2023-03-10T14:20:24.752Z,20.23
2023-03-10T14:22:51.621Z,18.92
2023-03-10T14:25:20.855Z,19.13
2023-03-10T14:27:50.850Z,19.02
2023-03-10T14:33:51.935Z,17.63
2023-03-10T14:36:18.954Z,20.88
2023-03-10T14:39:38.517Z,19.30
2023-03-10T14:45:26.561Z,17.45
2023-03-10T14:47:56.228Z,17.40
2023-03-10T14:50:24.370Z,19.77
2023-03-10T14:52:51.166Z,17.55
2023-03-10T14:55:18.121Z,17.40
2023-03-10T14:57:47.109Z,16.38
2023-03-10T15:00:20.104Z,16.75
2023-03-10T15:02:48.345Z,16.90
2023-03-10T15:05:34.742Z,16.70
2023-03-10T15:08:12.058Z,17.50
2023-03-10T15:10:43.904Z,15.93
2023-03-10T15:13:13.479Z,16.73
2023-03-10T15:15:43.215Z,17.48
2023-03-10T15:18:12.939Z,16.05
2023-03-10T15:20:39.851Z,16.48
2023-03-10T15:23:06.938Z,16.45
2023-03-10T15:25:33.880Z,15.68
2023-03-10T15:28:00.886Z,0.00
2023-03-10T15:30:32.026Z,0.00
2023-03-10T15:32:58.803Z,0.00
2023-03-10T15:35:25.737Z,0.00
2023-03-10T15:37:52.859Z,0.00
2023-03-10T15:40:22.876Z,0.00
2023-03-10T15:42:49.842Z,0.00
2023-03-10T15:45:18.393Z,0.00
2023-03-10T15:47:46.276Z,0.00
2023-03-10T15:52:49.510Z,0.10
2023-03-10T15:55:16.928Z,0.10
2023-03-10T15:57:44.961Z,0.00
2023-03-10T16:00:12.795Z,0.00
2023-03-10T16:02:39.622Z,0.00
2023-03-10T16:05:07.090Z,0.00
2023-03-10T16:07:34.135Z,0.00
2023-03-10T16:10:01.082Z,0.00
2023-03-10T16:12:28.258Z,0.63
2023-03-10T16:14:58.072Z,0.00
2023-03-10T16:17:25.047Z,0.00
2023-03-10T16:19:51.835Z,0.00
2023-03-10T16:22:18.644Z,0.00
2023-03-10T16:24:45.513Z,0.00
2023-03-10T16:27:12.818Z,0.00
2023-03-10T16:29:40.848Z,0.00
2023-03-10T16:32:08.729Z,0.00
2023-03-10T16:34:36.097Z,0.00
2023-03-10T16:37:03.019Z,0.00
2023-03-10T16:39:32.890Z,0.00
2023-03-10T16:42:00.119Z,0.00
2023-03-10T16:44:27.068Z,0.00
2023-03-10T16:46:53.894Z,0.00
2023-03-10T16:52:16.672Z,0.00
2023-03-10T16:54:45.724Z,0.00
2023-03-10T16:57:13.984Z,0.00
2023-03-10T16:59:42.405Z,0.00
2023-03-10T17:02:15.242Z,0.00
2023-03-10T17:04:42.314Z,0.00
2023-03-10T17:07:09.096Z,0.00
2023-03-10T17:09:36.646Z,0.00
2023-03-10T17:12:03.578Z,0.00
2023-03-10T17:14:30.591Z,1.08
2023-03-10T17:16:57.481Z,0.00
2023-03-10T17:19:28.764Z,0.00
2023-03-10T17:21:56.654Z,0.00
2023-03-10T17:24:23.639Z,0.00
2023-03-10T17:26:50.652Z,0.00
2023-03-10T17:29:17.601Z,0.00
2023-03-10T17:31:48.751Z,0.00
2023-03-10T17:34:15.940Z,0.00
2023-03-10T17:36:42.930Z,0.00
2023-03-10T17:39:18.026Z,0.00
2023-03-10T17:41:45.471Z,0.00
2023-03-10T17:44:15.866Z,0.00
2023-03-10T17:47:47.158Z,0.00
2023-03-10T17:50:14.277Z,0.00
2023-03-10T17:52:41.172Z,0.00
2023-03-10T17:55:08.391Z,0.00
2023-03-10T17:57:35.177Z,0.00
2023-03-10T18:03:36.501Z,0.00
2023-03-10T18:06:15.800Z,0.00
2023-03-10T18:12:18.705Z,0.00
2023-03-10T18:14:45.459Z,0.47
2023-03-10T18:17:12.169Z,0.00
2023-03-10T18:23:51.567Z,0.00
2023-03-10T18:26:24.034Z,0.00
2023-03-10T18:28:51.217Z,0.00
2023-03-10T18:31:23.821Z,0.00
2023-03-10T18:33:50.955Z,0.00
2023-03-10T18:36:50.961Z,0.00
2023-03-10T18:39:20.554Z,0.98
2023-03-10T18:41:47.346Z,0.00
2023-03-10T18:44:14.163Z,0.00
2023-03-10T18:46:40.988Z,0.00
2023-03-10T18:49:08.290Z,0.00
2023-03-10T18:51:35.177Z,0.00
2023-03-10T18:54:02.597Z,0.00
2023-03-10T18:56:29.638Z,0.00
2023-03-10T18:58:56.457Z,0.00
2023-03-10T19:01:23.478Z,0.00
2023-03-10T19:03:50.386Z,0.00
2023-03-10T19:06:33.881Z,0.00
2023-03-10T19:09:01.326Z,0.00
2023-03-10T19:11:36.499Z,0.00
2023-03-10T19:14:07.021Z,0.00
2023-03-10T19:17:08.742Z,0.00
2023-03-10T19:22:20.816Z,0.85
2023-03-10T19:24:48.920Z,0.00
2023-03-10T19:29:43.577Z,0.00
2023-03-10T19:32:20.659Z,0.00
2023-03-10T19:35:22.580Z,0.00
2023-03-10T19:37:49.500Z,0.00
2023-03-10T19:40:19.330Z,0.00
2023-03-10T19:42:46.860Z,0.00
2023-03-10T19:48:20.152Z,0.00
2023-03-10T19:50:53.897Z,0.00
2023-03-10T19:53:54.671Z,0.00
2023-03-10T19:56:26.402Z,0.00
2023-03-10T19:58:53.365Z,0.00
2023-03-10T20:01:24.421Z,0.00
2023-03-10T20:03:53.713Z,0.00
2023-03-10T20:06:21.396Z,0.00
2023-03-10T20:08:48.289Z,0.00
2023-03-10T20:11:15.127Z,0.00
2023-03-10T20:13:43.322Z,0.00
2023-03-10T20:16:12.835Z,0.00
2023-03-10T20:18:40.110Z,0.00
2023-03-10T20:21:07.431Z,0.00
2023-03-10T20:23:34.662Z,0.00
2023-03-10T20:26:03.135Z,0.00
2023-03-10T20:28:29.998Z,0.00
2023-03-10T20:30:56.834Z,0.00
2023-03-10T20:33:23.765Z,0.00
2023-03-10T20:35:50.662Z,0.00
2023-03-10T20:38:17.868Z,0.00
2023-03-10T20:40:44.986Z,0.00
2023-03-10T20:43:12.275Z,0.00
2023-03-10T20:46:22.661Z,0.00
2023-03-10T20:48:50.811Z,0.00
2023-03-10T20:54:05.179Z,0.00
2023-03-10T20:56:33.143Z,0.00
2023-03-10T20:59:01.633Z,0.00
2023-03-10T21:01:42.438Z,0.00
2023-03-10T21:04:09.517Z,0.00
2023-03-10T21:06:37.381Z,0.00
2023-03-10T21:09:05.864Z,0.00
2023-03-10T21:11:35.738Z,0.00
2023-03-10T21:14:02.641Z,0.00
2023-03-10T21:16:29.676Z,0.00
2023-03-10T21:18:56.516Z,0.00
2023-03-10T21:21:26.248Z,0.00
2023-03-10T21:23:53.086Z,0.00
2023-03-10T21:26:21.102Z,0.00
2023-03-10T21:28:48.269Z,0.22
2023-03-10T21:31:16.912Z,0.00
2023-03-10T21:33:43.817Z,0.00
2023-03-10T21:36:19.845Z,0.00
2023-03-10T21:38:48.897Z,0.00
2023-03-10T21:41:35.237Z,0.00
2023-03-10T21:44:03.251Z,0.00
2023-03-10T21:46:30.256Z,0.00
2023-03-10T21:48:57.561Z,0.00
2023-03-10T21:51:25.524Z,0.00
2023-03-10T21:53:55.048Z,0.00
2023-03-10T21:56:23.335Z,0.00
2023-03-10T21:58:50.084Z,0.00
2023-03-10T22:01:18.032Z,0.00
2023-03-10T22:03:45.044Z,0.00
2023-03-10T22:06:11.944Z,0.00
2023-03-10T22:08:39.177Z,0.00
2023-03-10T22:14:24.534Z,0.00
2023-03-10T22:16:51.454Z,0.00
2023-03-10T22:19:18.426Z,0.00
2023-03-10T22:21:45.189Z,0.00
2023-03-10T22:24:13.901Z,0.00
2023-03-10T22:26:40.789Z,0.00
2023-03-10T22:29:07.552Z,0.00
2023-03-10T22:31:34.485Z,0.00
2023-03-10T22:34:01.396Z,0.00
2023-03-10T22:36:28.318Z,0.00
2023-03-10T22:38:55.133Z,0.00
2023-03-10T22:41:21.958Z,0.00
2023-03-10T22:43:51.564Z,0.00
2023-03-10T22:46:18.395Z,0.00
2023-03-10T22:48:45.141Z,0.00
2023-03-10T22:51:15.323Z,0.00
2023-03-10T22:53:42.535Z,0.00
2023-03-10T22:56:09.709Z,0.00
2023-03-10T22:58:37.787Z,0.00
2023-03-10T23:01:05.163Z,0.00
2023-03-10T23:03:34.418Z,0.00
2023-03-10T23:06:08.087Z,0.00
2023-03-10T23:08:39.380Z,0.00
2023-03-10T23:11:11.501Z,0.00
2023-03-10T23:13:38.469Z,0.00
2023-03-10T23:18:47.724Z,0.00
2023-03-10T23:21:14.832Z,0.00
2023-03-10T23:23:43.754Z,0.00
2023-03-10T23:26:11.787Z,0.00
2023-03-10T23:28:38.716Z,0.00
2023-03-10T23:31:07.007Z,0.00
2023-03-10T23:33:34.687Z,0.00
2023-03-10T23:36:01.574Z,0.00
2023-03-10T23:38:28.515Z,0.00
2023-03-10T23:40:55.598Z,0.00
2023-03-10T23:46:09.259Z,0.00
2023-03-10T23:48:36.141Z,0.00
2023-03-10T23:51:03.297Z,0.00
2023-03-10T23:53:31.242Z,0.00
2023-03-10T23:55:59.936Z,0.00
2023-03-10T23:58:27.833Z,0.00
